Time;durP1;ratioP1;P1;durP2;ratioP2;P2;SDS_P1;SDS_P2;PMS_P1;PMS_P2;Temp;Humidity;BMP_temperature;BMP_pressure;BME280_temperature;BME280_humidity;BME280_pressure;Samples;Min_cycle;Max_cycle;Signal;HPM_P1;HPM_P2
2022/08/22 00:01:29;;;;;;;0.93;0.93;;;;;;;;;;5033263;28;20556;-57
2022/08/22 00:04:01;;;;;;;0.90;0.90;;;;;;;;;;5030083;28;20318;-57
2022/08/22 00:06:46;;;;;;;1.00;1.00;;;;;;;;;;5038091;28;20240;-56
2022/08/22 00:09:18;;;;;;;0.90;0.90;;;;;;;;;;5031672;28;20228;-57
2022/08/22 00:11:47;;;;;;;1.10;1.10;;;;;;;;;;5030182;28;20223;-56
2022/08/22 00:14:17;;;;;;;0.90;0.90;;;;;;;;;;5031596;28;20214;-57
2022/08/22 00:16:43;;;;;;;0.80;0.80;;;;;;;;;;5028951;28;20220;-57
2022/08/22 00:19:21;;;;;;;1.00;1.00;;;;;;;;;;5038999;28;20290;-56
2022/08/22 00:21:59;;;;;;;0.90;0.90;;;;;;;;;;5042929;28;20696;-57
2022/08/22 00:24:38;;;;;;;0.90;0.90;;;;;;;;;;5020955;28;20221;-56
2022/08/22 00:27:09;;;;;;;1.00;1.00;;;;;;;;;;5019021;28;21610;-57
2022/08/22 00:29:35;;;;;;;1.20;1.20;;;;;;;;;;5033129;28;20219;-57
2022/08/22 00:32:06;;;;;;;1.00;1.00;;;;;;;;;;5033157;28;20223;-56
2022/08/22 00:34:34;;;;;;;1.27;1.27;;;;;;;;;;5027633;28;20219;-56
2022/08/22 00:37:06;;;;;;;1.03;1.03;;;;;;;;;;5026744;28;20584;-56
2022/08/22 00:39:51;;;;;;;0.80;0.80;;;;;;;;;;5029421;28;20843;-56
2022/08/22 00:42:36;;;;;;;0.90;0.90;;;;;;;;;;5031334;28;20227;-57
2022/08/22 00:45:17;;;;;;;0.90;0.90;;;;;;;;;;5032417;28;20263;-56
2022/08/22 00:48:01;;;;;;;1.07;1.07;;;;;;;;;;5034810;28;20281;-57
2022/08/22 00:50:51;;;;;;;1.03;1.03;;;;;;;;;;5028796;28;20624;-56
2022/08/22 00:53:17;;;;;;;0.93;0.93;;;;;;;;;;4987642;28;20238;-57
2022/08/22 00:55:45;;;;;;;0.90;0.90;;;;;;;;;;5022119;28;20745;-57
2022/08/22 00:58:18;;;;;;;0.83;0.83;;;;;;;;;;5034198;28;20228;-57
2022/08/22 01:00:51;;;;;;;0.90;0.90;;;;;;;;;;5017339;28;20286;-56
2022/08/22 01:03:17;;;;;;;0.77;0.77;;;;;;;;;;5022586;28;20287;-57
2022/08/22 01:06:03;;;;;;;0.80;0.80;;;;;;;;;;5033410;28;20228;-56
2022/08/22 01:08:33;;;;;;;0.80;0.80;;;;;;;;;;5041841;28;20617;-57
2022/08/22 01:11:05;;;;;;;1.10;1.10;;;;;;;;;;5026268;28;20750;-57
2022/08/22 01:13:50;;;;;;;1.03;1.03;;;;;;;;;;5018628;28;20211;-58
2022/08/22 01:16:40;;;;;;;1.03;1.03;;;;;;;;;;5038842;28;20228;-58
2022/08/22 01:19:06;;;;;;;0.90;0.90;;;;;;;;;;5026778;28;20233;-57
2022/08/22 01:21:35;;;;;;;0.97;0.97;;;;;;;;;;5035813;28;20557;-57
2022/08/22 01:24:27;;;;;;;0.90;0.90;;;;;;;;;;5024697;28;20763;-56
2022/08/22 01:27:04;;;;;;;0.90;0.90;;;;;;;;;;4994563;28;20646;-57
2022/08/22 01:29:30;;;;;;;0.90;0.90;;;;;;;;;;5026480;28;20375;-57
2022/08/22 01:32:02;;;;;;;1.00;1.00;;;;;;;;;;5035406;28;20372;-57
2022/08/22 01:34:44;;;;;;;1.10;1.10;;;;;;;;;;5023824;28;20253;-56
2022/08/22 01:37:16;;;;;;;0.70;0.70;;;;;;;;;;5008882;28;20362;-58
2022/08/22 01:39:54;;;;;;;0.80;0.80;;;;;;;;;;5020426;28;20693;-57
2022/08/22 01:42:39;;;;;;;1.00;1.00;;;;;;;;;;5023833;28;20231;-57
2022/08/22 01:45:05;;;;;;;0.90;0.90;;;;;;;;;;5027964;28;20704;-57
2022/08/22 01:47:38;;;;;;;0.70;0.70;;;;;;;;;;5019604;28;20226;-57
2022/08/22 01:50:22;;;;;;;0.70;0.70;;;;;;;;;;5014934;28;20278;-58
2022/08/22 01:52:50;;;;;;;0.60;0.60;;;;;;;;;;5016784;28;20235;-57
2022/08/22 01:55:22;;;;;;;0.80;0.80;;;;;;;;;;5014960;28;20865;-57
2022/08/22 01:57:52;;;;;;;0.83;0.83;;;;;;;;;;5036213;28;20306;-57
2022/08/22 02:00:18;;;;;;;1.00;1.00;;;;;;;;;;5015851;28;20307;-57
2022/08/22 02:02:47;;;;;;;0.70;0.70;;;;;;;;;;5009731;28;20232;-57
2022/08/22 02:05:17;;;;;;;0.80;0.80;;;;;;;;;;5027494;28;20236;-57
2022/08/22 02:08:00;;;;;;;0.80;0.80;;;;;;;;;;5032504;28;20857;-57
2022/08/22 02:10:26;;;;;;;0.80;0.80;;;;;;;;;;5030162;28;20677;-56
2022/08/22 02:12:56;;;;;;;0.80;0.80;;;;;;;;;;5035419;28;20220;-57
2022/08/22 02:15:38;;;;;;;1.00;1.00;;;;;;;;;;5016502;28;20319;-57
2022/08/22 02:18:09;;;;;;;0.80;0.80;;;;;;;;;;5026050;28;20229;-57
2022/08/22 02:20:35;;;;;;;0.87;0.87;;;;;;;;;;5032112;28;20813;-57
2022/08/22 02:23:07;;;;;;;0.60;0.60;;;;;;;;;;5021921;28;20220;-57
2022/08/22 02:25:45;;;;;;;0.87;0.87;;;;;;;;;;5018702;28;20255;-57
2022/08/22 02:28:31;;;;;;;0.70;0.70;;;;;;;;;;5032541;28;20670;-57
2022/08/22 02:31:09;;;;;;;0.73;0.73;;;;;;;;;;5006687;28;20239;-57
2022/08/22 02:33:44;;;;;;;1.00;1.00;;;;;;;;;;5002655;28;20231;-57
2022/08/22 02:36:30;;;;;;;1.03;1.03;;;;;;;;;;5027685;28;20648;-57
2022/08/22 02:39:02;;;;;;;1.20;1.20;;;;;;;;;;5011549;28;20251;-57
2022/08/22 02:41:31;;;;;;;1.00;1.00;;;;;;;;;;5029872;28;20261;-57
2022/08/22 02:43:59;;;;;;;1.10;1.10;;;;;;;;;;5011900;28;20224;-57
2022/08/22 02:46:31;;;;;;;0.90;0.90;;;;;;;;;;5008212;28;20246;-57
2022/08/22 02:49:07;;;;;;;0.97;0.97;;;;;;;;;;5028454;28;20228;-57
2022/08/22 02:51:40;;;;;;;1.20;1.20;;;;;;;;;;5026772;28;20243;-57
2022/08/22 02:54:25;;;;;;;1.30;1.30;;;;;;;;;;5012124;28;20216;-57
2022/08/22 02:57:02;;;;;;;1.00;1.00;;;;;;;;;;5027897;28;20250;-57
2022/08/22 02:59:32;;;;;;;0.90;0.90;;;;;;;;;;5039196;28;20228;-56
2022/08/22 03:02:18;;;;;;;0.97;0.97;;;;;;;;;;5024092;27;20307;-57
2022/08/22 03:04:46;;;;;;;1.30;1.30;;;;;;;;;;5017970;28;20257;-57
2022/08/22 03:07:18;;;;;;;1.00;1.00;;;;;;;;;;5026788;28;20293;-57
2022/08/22 03:09:48;;;;;;;1.00;1.00;;;;;;;;;;5033335;28;20319;-57
2022/08/22 03:12:38;;;;;;;1.00;1.00;;;;;;;;;;5039660;28;20215;-57
2022/08/22 03:15:18;;;;;;;1.13;1.13;;;;;;;;;;5039789;28;20224;-57
2022/08/22 03:17:49;;;;;;;1.00;1.00;;;;;;;;;;5035023;28;20235;-56
2022/08/22 03:20:19;;;;;;;1.10;1.10;;;;;;;;;;5021214;28;20282;-56
2022/08/22 03:22:50;;;;;;;0.70;0.70;;;;;;;;;;5039110;28;20303;-57
2022/08/22 03:25:35;;;;;;;0.80;0.80;;;;;;;;;;5020770;28;20294;-55
2022/08/22 03:28:01;;;;;;;0.70;0.70;;;;;;;;;;5027334;28;20230;-55
2022/08/22 03:30:32;;;;;;;0.70;0.70;;;;;;;;;;5031147;28;20746;-56
2022/08/22 03:33:10;;;;;;;0.70;0.70;;;;;;;;;;5007895;28;20259;-56
2022/08/22 03:35:39;;;;;;;0.60;0.60;;;;;;;;;;5033402;28;20234;-56
2022/08/22 03:38:24;;;;;;;0.80;0.80;;;;;;;;;;5040996;28;20236;-55
2022/08/22 03:41:08;;;;;;;0.60;0.60;;;;;;;;;;5035387;28;20589;-56
2022/08/22 03:43:41;;;;;;;0.70;0.70;;;;;;;;;;5042978;28;20643;-55
2022/08/22 03:46:12;;;;;;;0.70;0.70;;;;;;;;;;5036821;28;20825;-56
2022/08/22 03:48:45;;;;;;;0.70;0.70;;;;;;;;;;5038823;28;20324;-55
2022/08/22 03:51:30;;;;;;;0.70;0.70;;;;;;;;;;5009882;28;20696;-56
2022/08/22 03:54:02;;;;;;;0.73;0.73;;;;;;;;;;5019202;28;20234;-55
2022/08/22 03:56:33;;;;;;;0.70;0.70;;;;;;;;;;5028227;28;20236;-55
2022/08/22 03:58:59;;;;;;;0.60;0.60;;;;;;;;;;5022723;28;20701;-56
2022/08/22 04:01:32;;;;;;;0.73;0.73;;;;;;;;;;5013884;28;20675;-57
2022/08/22 04:04:06;;;;;;;0.70;0.70;;;;;;;;;;5034317;28;20314;-55
2022/08/22 04:06:41;;;;;;;0.73;0.73;;;;;;;;;;5022255;28;20275;-55
2022/08/22 04:09:19;;;;;;;0.70;0.70;;;;;;;;;;5027378;28;20322;-55
2022/08/22 04:12:03;;;;;;;0.63;0.63;;;;;;;;;;5012495;28;20228;-56
2022/08/22 04:14:48;;;;;;;0.60;0.60;;;;;;;;;;5030265;28;20230;-56
2022/08/22 04:17:27;;;;;;;0.73;0.73;;;;;;;;;;5026782;28;20650;-55
2022/08/22 04:20:11;;;;;;;0.70;0.70;;;;;;;;;;5014293;28;20234;-56
2022/08/22 04:22:56;;;;;;;0.70;0.70;;;;;;;;;;5031344;28;20773;-55
2022/08/22 04:25:31;;;;;;;0.70;0.70;;;;;;;;;;5013643;28;21674;-56
2022/08/22 04:28:02;;;;;;;0.70;0.70;;;;;;;;;;5039358;28;20350;-56
2022/08/22 04:30:40;;;;;;;0.60;0.60;;;;;;;;;;5020397;28;20266;-56
2022/08/22 04:33:08;;;;;;;0.70;0.70;;;;;;;;;;5007533;28;20733;-55
2022/08/22 04:35:34;;;;;;;0.77;0.77;;;;;;;;;;5018447;28;20227;-55
2022/08/22 04:38:02;;;;;;;0.70;0.70;;;;;;;;;;5041995;28;20233;-56
2022/08/22 04:40:30;;;;;;;0.70;0.70;;;;;;;;;;5017798;28;20270;-56
2022/08/22 04:43:16;;;;;;;0.70;0.70;;;;;;;;;;5006875;28;20232;-56
2022/08/22 04:45:48;;;;;;;0.73;0.73;;;;;;;;;;5034552;28;20242;-56
2022/08/22 04:48:31;;;;;;;0.80;0.80;;;;;;;;;;5035329;28;20612;-56
2022/08/22 04:51:16;;;;;;;0.70;0.70;;;;;;;;;;5034731;28;20307;-55
2022/08/22 04:53:52;;;;;;;0.70;0.70;;;;;;;;;;5026615;28;20258;-56
2022/08/22 04:56:42;;;;;;;0.77;0.77;;;;;;;;;;5000292;28;20307;-55
2022/08/22 04:59:10;;;;;;;0.70;0.70;;;;;;;;;;5014050;28;21193;-58
2022/08/22 05:01:41;;;;;;;0.70;0.70;;;;;;;;;;5014034;28;20223;-57
2022/08/22 05:04:08;;;;;;;0.70;0.70;;;;;;;;;;5032626;28;20656;-58
2022/08/22 05:06:36;;;;;;;0.80;0.80;;;;;;;;;;5013216;28;20309;-57
2022/08/22 05:09:04;;;;;;;0.60;0.60;;;;;;;;;;5012030;28;20228;-60
2022/08/22 05:11:30;;;;;;;0.73;0.73;;;;;;;;;;5009312;28;20338;-57
2022/08/22 05:13:57;;;;;;;0.80;0.80;;;;;;;;;;5022309;28;21022;-58
2022/08/22 05:16:24;;;;;;;0.60;0.60;;;;;;;;;;5022788;28;20237;-58
2022/08/22 05:18:54;;;;;;;0.70;0.70;;;;;;;;;;5033691;28;20231;-58
2022/08/22 05:21:21;;;;;;;0.73;0.73;;;;;;;;;;5013702;28;20218;-57
2022/08/22 05:24:07;;;;;;;0.80;0.80;;;;;;;;;;5025374;28;20230;-58
2022/08/22 05:26:36;;;;;;;0.70;0.70;;;;;;;;;;5046686;28;21245;-58
2022/08/22 05:29:02;;;;;;;0.70;0.70;;;;;;;;;;5019839;28;20220;-58
2022/08/22 05:31:31;;;;;;;0.70;0.70;;;;;;;;;;5033001;27;20231;-58
2022/08/22 05:34:02;;;;;;;0.70;0.70;;;;;;;;;;5026361;28;20229;-57
2022/08/22 05:36:28;;;;;;;0.60;0.60;;;;;;;;;;5042526;28;20243;-57
2022/08/22 05:38:59;;;;;;;0.60;0.60;;;;;;;;;;5025600;28;20325;-58
2022/08/22 05:41:27;;;;;;;0.70;0.70;;;;;;;;;;5024149;28;20244;-58
2022/08/22 05:43:53;;;;;;;0.77;0.77;;;;;;;;;;5017177;28;21122;-57
2022/08/22 05:46:38;;;;;;;0.80;0.80;;;;;;;;;;5033249;28;20236;-58
2022/08/22 05:49:04;;;;;;;0.80;0.80;;;;;;;;;;5034249;28;20235;-58
2022/08/22 05:51:39;;;;;;;0.77;0.77;;;;;;;;;;5032220;28;20831;-58
2022/08/22 05:54:10;;;;;;;0.70;0.70;;;;;;;;;;5043848;28;20254;-57
2022/08/22 05:56:43;;;;;;;0.80;0.80;;;;;;;;;;5013214;28;20693;-58
2022/08/22 05:59:13;;;;;;;0.70;0.70;;;;;;;;;;5015550;28;21120;-58
2022/08/22 06:01:42;;;;;;;0.80;0.80;;;;;;;;;;5018341;28;20217;-58
2022/08/22 06:04:13;;;;;;;0.80;0.80;;;;;;;;;;5025045;28;20304;-58
2022/08/22 06:06:46;;;;;;;0.70;0.70;;;;;;;;;;5033962;28;20325;-58
2022/08/22 06:09:48;;;;;;;0.70;0.70;;;;;;;;;;5016587;28;20224;-58
2022/08/22 06:12:14;;;;;;;0.60;0.60;;;;;;;;;;4975532;28;20247;-57
2022/08/22 06:14:46;;;;;;;0.70;0.70;;;;;;;;;;5020826;28;20645;-56
2022/08/22 06:17:13;;;;;;;0.70;0.70;;;;;;;;;;5030318;28;20259;-58
2022/08/22 06:19:40;;;;;;;0.80;0.80;;;;;;;;;;5030292;28;21407;-56
2022/08/22 06:22:06;;;;;;;0.70;0.70;;;;;;;;;;5031121;28;20239;-58
2022/08/22 06:24:32;;;;;;;0.70;0.70;;;;;;;;;;5009511;28;20302;-57
2022/08/22 06:27:00;;;;;;;0.70;0.70;;;;;;;;;;5029402;28;20852;-57
2022/08/22 06:29:36;;;;;;;0.60;0.60;;;;;;;;;;5033845;28;20357;-57
2022/08/22 06:32:03;;;;;;;0.80;0.80;;;;;;;;;;5018001;28;20235;-57
2022/08/22 06:34:33;;;;;;;0.70;0.70;;;;;;;;;;5031890;28;20285;-57
2022/08/22 06:37:01;;;;;;;0.60;0.60;;;;;;;;;;5033435;28;20666;-57
2022/08/22 06:39:31;;;;;;;0.80;0.80;;;;;;;;;;5034421;28;20236;-54
2022/08/22 06:42:02;;;;;;;0.70;0.70;;;;;;;;;;5024711;28;20220;-58
2022/08/22 06:44:32;;;;;;;0.70;0.70;;;;;;;;;;5038202;28;21611;-56
2022/08/22 06:46:58;;;;;;;0.80;0.80;;;;;;;;;;5036954;28;26026;-56
2022/08/22 06:49:24;;;;;;;0.80;0.80;;;;;;;;;;5038614;28;20568;-57
2022/08/22 06:51:50;;;;;;;0.70;0.70;;;;;;;;;;5026665;28;20257;-58
2022/08/22 06:54:21;;;;;;;0.70;0.70;;;;;;;;;;5028001;28;20309;-58
2022/08/22 06:56:48;;;;;;;0.80;0.80;;;;;;;;;;5042278;28;20220;-57
2022/08/22 06:59:15;;;;;;;0.90;0.90;;;;;;;;;;5041170;28;20237;-58
2022/08/22 07:01:44;;;;;;;0.70;0.70;;;;;;;;;;5016444;28;20226;-58
2022/08/22 07:04:10;;;;;;;1.00;1.00;;;;;;;;;;5025564;28;20238;-57
2022/08/22 07:06:38;;;;;;;0.70;0.70;;;;;;;;;;5026372;28;20225;-57
2022/08/22 07:09:04;;;;;;;0.70;0.70;;;;;;;;;;5004612;28;20617;-58
2022/08/22 07:11:31;;;;;;;0.70;0.70;;;;;;;;;;5013083;28;20807;-58
2022/08/22 07:14:00;;;;;;;0.70;0.70;;;;;;;;;;5021082;28;20273;-57
2022/08/22 07:16:39;;;;;;;0.60;0.60;;;;;;;;;;5033615;28;20227;-56
2022/08/22 07:19:05;;;;;;;0.70;0.70;;;;;;;;;;5026405;28;20719;-56
2022/08/22 07:21:41;;;;;;;0.60;0.60;;;;;;;;;;5037117;28;20258;-57
2022/08/22 07:24:07;;;;;;;0.67;0.67;;;;;;;;;;5039554;28;20214;-58
2022/08/22 07:26:47;;;;;;;0.70;0.70;;;;;;;;;;5018279;28;20309;-56
2022/08/22 07:29:18;;;;;;;0.70;0.70;;;;;;;;;;5035280;28;20221;-57
2022/08/22 07:31:51;;;;;;;0.80;0.80;;;;;;;;;;5031867;28;20898;-57
2022/08/22 07:34:33;;;;;;;0.70;0.70;;;;;;;;;;5050762;28;20217;-56
2022/08/22 07:37:00;;;;;;;0.60;0.60;;;;;;;;;;5050817;28;20250;-56
2022/08/22 07:39:45;;;;;;;0.80;0.80;;;;;;;;;;5029904;28;20226;-56
2022/08/22 07:42:14;;;;;;;1.00;1.00;;;;;;;;;;5034526;28;20227;-56
2022/08/22 07:44:57;;;;;;;0.90;0.90;;;;;;;;;;5028920;28;20228;-57
2022/08/22 07:47:23;;;;;;;1.00;1.00;;;;;;;;;;5039767;28;20219;-56
2022/08/22 07:49:51;;;;;;;0.70;0.70;;;;;;;;;;5038429;28;20259;-56
2022/08/22 07:52:17;;;;;;;1.10;1.10;;;;;;;;;;5025855;28;25811;-56
2022/08/22 07:55:05;;;;;;;0.90;0.90;;;;;;;;;;5018762;28;20225;-56
2022/08/22 07:57:32;;;;;;;1.00;1.00;;;;;;;;;;5034463;28;20220;-57
2022/08/22 07:59:59;;;;;;;1.00;1.00;;;;;;;;;;5047749;28;20223;-56
2022/08/22 08:02:25;;;;;;;1.00;1.00;;;;;;;;;;5035324;28;20771;-57
2022/08/22 08:04:52;;;;;;;0.90;0.90;;;;;;;;;;5000398;28;20224;-56
2022/08/22 08:07:19;;;;;;;0.90;0.90;;;;;;;;;;5028763;28;20231;-57
2022/08/22 08:09:55;;;;;;;1.00;1.00;;;;;;;;;;5017476;28;20221;-56
2022/08/22 08:12:24;;;;;;;0.98;0.98;;;;;;;;;;5018842;28;20718;-56
2022/08/22 08:14:51;;;;;;;1.20;1.20;;;;;;;;;;5026514;28;20319;-57
2022/08/22 08:17:25;;;;;;;1.00;1.00;;;;;;;;;;5030205;28;21509;-57
2022/08/22 08:19:51;;;;;;;1.00;1.00;;;;;;;;;;5022587;28;20224;-57
2022/08/22 08:22:18;;;;;;;1.10;1.10;;;;;;;;;;5033277;28;21196;-56
2022/08/22 08:24:44;;;;;;;1.08;1.08;;;;;;;;;;5023294;28;20359;-56
2022/08/22 08:30:10;;;;;;;1.00;1.00;;;;;;;;;;5037888;28;20239;-56
2022/08/22 08:32:36;;;;;;;1.00;1.00;;;;;;;;;;5031899;28;20235;-56
2022/08/22 08:35:04;;;;;;;1.00;1.00;;;;;;;;;;5030614;28;20579;-57
2022/08/22 08:37:47;;;;;;;1.00;1.00;;;;;;;;;;5043637;28;20716;-57
2022/08/22 08:40:33;;;;;;;1.00;1.00;;;;;;;;;;5053437;28;20226;-57
2022/08/22 08:43:28;;;;;;;1.10;1.10;;;;;;;;;;5022752;28;20236;-57
2022/08/22 08:46:06;;;;;;;1.00;1.00;;;;;;;;;;5045543;28;20559;-57
2022/08/22 08:48:43;;;;;;;1.73;1.70;;;;;;;;;;5012955;28;20785;-57
2022/08/22 08:51:36;;;;;;;1.90;1.80;;;;;;;;;;5014093;28;20613;-60
2022/08/22 08:54:13;;;;;;;1.90;1.80;;;;;;;;;;5040619;28;20262;-62
2022/08/22 08:56:58;;;;;;;2.00;1.90;;;;;;;;;;5041491;28;20226;-59
2022/08/22 08:59:26;;;;;;;2.08;1.98;;;;;;;;;;5026571;28;20224;-59
2022/08/22 09:02:11;;;;;;;1.90;1.80;;;;;;;;;;5017073;28;20698;-60
2022/08/22 09:04:47;;;;;;;1.73;1.70;;;;;;;;;;5028130;28;20754;-59
2022/08/22 09:07:20;;;;;;;1.60;1.60;;;;;;;;;;5034985;28;20600;-59
2022/08/22 09:09:59;;;;;;;1.60;1.60;;;;;;;;;;5025569;28;20221;-57
2022/08/22 09:12:44;;;;;;;1.80;1.70;;;;;;;;;;5034029;28;20241;-57
2022/08/22 09:15:13;;;;;;;1.90;1.80;;;;;;;;;;5035204;28;20707;-58
2022/08/22 09:17:48;;;;;;;1.90;1.80;;;;;;;;;;5038798;28;20221;-56
2022/08/22 09:20:24;;;;;;;2.00;1.90;;;;;;;;;;5031858;28;20234;-56
2022/08/22 09:23:16;;;;;;;1.90;1.80;;;;;;;;;;5036319;28;20237;-59
2022/08/22 09:25:42;;;;;;;1.67;1.67;;;;;;;;;;5037696;28;20656;-59
2022/08/22 09:28:13;;;;;;;1.52;1.52;;;;;;;;;;5010020;28;21288;-59
2022/08/22 09:31:03;;;;;;;1.50;1.50;;;;;;;;;;5022963;28;21205;-58
2022/08/22 09:33:40;;;;;;;1.60;1.60;;;;;;;;;;5005103;28;20240;-59
2022/08/22 09:36:14;;;;;;;1.65;1.60;;;;;;;;;;5014422;28;20624;-59
2022/08/22 09:38:53;;;;;;;1.50;1.50;;;;;;;;;;5028034;28;20223;-58
2022/08/22 09:41:25;;;;;;;1.50;1.50;;;;;;;;;;5029756;28;20231;-59
2022/08/22 09:43:54;;;;;;;1.40;1.40;;;;;;;;;;5023796;28;20316;-60
2022/08/22 09:46:20;;;;;;;1.40;1.40;;;;;;;;;;5016653;28;20656;-58
2022/08/22 09:49:03;;;;;;;1.60;1.60;;;;;;;;;;5027464;28;20459;-58
2022/08/22 09:51:49;;;;;;;1.40;1.40;;;;;;;;;;5009882;28;20243;-59
2022/08/22 09:54:24;;;;;;;1.55;1.55;;;;;;;;;;5034586;28;20310;-58
2022/08/22 09:56:55;;;;;;;1.50;1.50;;;;;;;;;;5040372;28;20284;-58
2022/08/22 09:59:30;;;;;;;1.42;1.42;;;;;;;;;;5021503;28;20269;-60
2022/08/22 10:02:03;;;;;;;1.45;1.45;;;;;;;;;;5019631;28;20263;-58
2022/08/22 10:04:48;;;;;;;1.30;1.30;;;;;;;;;;5016275;28;20298;-59
2022/08/22 10:07:14;;;;;;;1.35;1.35;;;;;;;;;;5018902;28;20272;-58
2022/08/22 10:09:43;;;;;;;1.50;1.50;;;;;;;;;;5050227;28;20222;-58
2022/08/22 10:12:09;;;;;;;1.08;1.08;;;;;;;;;;5031261;28;20324;-58
2022/08/22 10:14:39;;;;;;;1.15;1.15;;;;;;;;;;5028697;28;20211;-58
2022/08/22 10:17:18;;;;;;;1.10;1.10;;;;;;;;;;5036054;28;20297;-58
2022/08/22 10:19:55;;;;;;;1.30;1.30;;;;;;;;;;5029818;28;20281;-56
2022/08/22 10:22:36;;;;;;;1.10;1.10;;;;;;;;;;5022153;28;20315;-56
2022/08/22 10:25:06;;;;;;;0.70;0.70;;;;;;;;;;5038564;28;20283;-56
2022/08/22 10:27:54;;;;;;;0.70;0.70;;;;;;;;;;5020205;28;20231;-55
2022/08/22 10:30:21;;;;;;;0.60;0.60;;;;;;;;;;5023530;28;20230;-54
2022/08/22 10:32:47;;;;;;;0.70;0.70;;;;;;;;;;5011887;28;20230;-55
2022/08/22 10:35:21;;;;;;;0.65;0.65;;;;;;;;;;5034249;28;20224;-56
2022/08/22 10:37:55;;;;;;;0.60;0.60;;;;;;;;;;5013338;28;20298;-55
2022/08/22 10:40:32;;;;;;;0.60;0.60;;;;;;;;;;5018723;28;20266;-55
2022/08/22 10:43:01;;;;;;;0.70;0.70;;;;;;;;;;5036301;28;20906;-55
2022/08/22 10:45:34;;;;;;;0.65;0.65;;;;;;;;;;5024743;28;20728;-56
2022/08/22 10:48:06;;;;;;;0.65;0.65;;;;;;;;;;5043453;28;20220;-56
2022/08/22 10:50:33;;;;;;;0.60;0.60;;;;;;;;;;5038032;28;20697;-58
2022/08/22 10:55:46;;;;;;;1.33;1.33;;;;;;;;;;5027786;28;20829;-56
2022/08/22 10:58:13;;;;;;;1.40;1.40;;;;;;;;;;5023600;28;20243;-56
2022/08/22 11:00:55;;;;;;;1.30;1.30;;;;;;;;;;5030286;28;20696;-56
2022/08/22 11:03:37;;;;;;;1.30;1.30;;;;;;;;;;5009685;28;20276;-56
2022/08/22 11:06:04;;;;;;;1.20;1.20;;;;;;;;;;5029726;28;20235;-56
2022/08/22 11:08:49;;;;;;;1.00;1.00;;;;;;;;;;5039054;28;20216;-56
2022/08/22 11:11:19;;;;;;;1.30;1.30;;;;;;;;;;5040343;28;20223;-56
2022/08/22 11:13:54;;;;;;;1.38;1.38;;;;;;;;;;5036179;28;20567;-56
2022/08/22 11:16:24;;;;;;;1.30;1.30;;;;;;;;;;5034840;28;20223;-57
2022/08/22 11:18:59;;;;;;;1.10;1.10;;;;;;;;;;5040227;28;20232;-56
2022/08/22 11:21:29;;;;;;;1.10;1.10;;;;;;;;;;5035727;28;20223;-55
2022/08/22 11:24:01;;;;;;;1.08;1.08;;;;;;;;;;5035818;28;20766;-56
2022/08/22 11:26:46;;;;;;;1.17;1.17;;;;;;;;;;5022172;28;20231;-55
2022/08/22 11:29:38;;;;;;;1.20;1.20;;;;;;;;;;5028040;28;20224;-55
2022/08/22 11:32:08;;;;;;;1.30;1.30;;;;;;;;;;5001134;28;20321;-56
2022/08/22 11:34:37;;;;;;;1.20;1.20;;;;;;;;;;5041095;28;20318;-56
2022/08/22 11:37:04;;;;;;;1.25;1.25;;;;;;;;;;5014349;28;20293;-56
2022/08/22 11:39:35;;;;;;;1.25;1.25;;;;;;;;;;5028063;28;20241;-55
2022/08/22 11:42:10;;;;;;;1.17;1.17;;;;;;;;;;5043729;28;20215;-56
2022/08/22 11:44:37;;;;;;;1.10;1.10;;;;;;;;;;5026951;28;20231;-56
2022/08/22 11:47:07;;;;;;;1.25;1.25;;;;;;;;;;5033933;28;23016;-56
2022/08/22 11:49:42;;;;;;;1.20;1.20;;;;;;;;;;5028446;28;20220;-56
2022/08/22 11:52:11;;;;;;;1.17;1.17;;;;;;;;;;5043803;28;20253;-55
2022/08/22 11:54:56;;;;;;;1.10;1.10;;;;;;;;;;5036105;28;20288;-56
2022/08/22 11:57:25;;;;;;;1.10;1.10;;;;;;;;;;5043669;28;20216;-56
2022/08/22 12:00:01;;;;;;;1.13;1.13;;;;;;;;;;5041440;28;20242;-56
2022/08/22 12:02:35;;;;;;;1.10;1.10;;;;;;;;;;5040550;28;20305;-56
2022/08/22 12:05:11;;;;;;;1.15;1.15;;;;;;;;;;5028353;28;20650;-56
2022/08/22 12:07:37;;;;;;;1.10;1.10;;;;;;;;;;5035939;28;20773;-56
2022/08/22 12:10:03;;;;;;;1.10;1.10;;;;;;;;;;5038050;28;20243;-56
2022/08/22 12:12:47;;;;;;;1.13;1.13;;;;;;;;;;5037544;28;20259;-56
2022/08/22 12:15:16;;;;;;;1.17;1.17;;;;;;;;;;5028770;28;20224;-55
2022/08/22 12:18:01;;;;;;;1.20;1.20;;;;;;;;;;5042481;28;20706;-57
2022/08/22 12:20:41;;;;;;;1.20;1.20;;;;;;;;;;5041420;28;20239;-56
2022/08/22 12:23:23;;;;;;;1.20;1.20;;;;;;;;;;5046929;28;20739;-56
2022/08/22 12:26:02;;;;;;;1.20;1.20;;;;;;;;;;5037364;28;20221;-56
2022/08/22 12:28:28;;;;;;;1.30;1.30;;;;;;;;;;5038117;28;20276;-56
2022/08/22 12:31:13;;;;;;;1.30;1.30;;;;;;;;;;5039032;28;20219;-56
2022/08/22 12:33:56;;;;;;;1.40;1.40;;;;;;;;;;5035324;28;20692;-56
2022/08/22 12:36:37;;;;;;;1.30;1.30;;;;;;;;;;5034201;28;20260;-56
2022/08/22 12:39:19;;;;;;;1.30;1.30;;;;;;;;;;5013359;28;20227;-56
2022/08/22 12:41:45;;;;;;;1.27;1.27;;;;;;;;;;5023422;28;20228;-56
2022/08/22 12:44:29;;;;;;;1.23;1.23;;;;;;;;;;5016015;28;20228;-56
2022/08/22 12:47:14;;;;;;;1.30;1.30;;;;;;;;;;5019318;28;20248;-56
2022/08/22 12:49:47;;;;;;;1.30;1.30;;;;;;;;;;5020833;28;20264;-56
2022/08/22 12:52:21;;;;;;;1.30;1.30;;;;;;;;;;5005537;28;20227;-56
2022/08/22 12:55:16;;;;;;;1.20;1.20;;;;;;;;;;5015525;28;20797;-56
2022/08/22 12:57:47;;;;;;;1.30;1.30;;;;;;;;;;4962886;28;20228;-56
2022/08/22 13:00:26;;;;;;;1.30;1.30;;;;;;;;;;5014666;28;20705;-56
2022/08/22 13:02:52;;;;;;;1.17;1.17;;;;;;;;;;5019471;28;20686;-56
2022/08/22 13:05:22;;;;;;;1.20;1.20;;;;;;;;;;5000073;28;20237;-56
2022/08/22 13:07:55;;;;;;;1.30;1.30;;;;;;;;;;5021172;28;20256;-55
2022/08/22 13:10:40;;;;;;;1.40;1.40;;;;;;;;;;5018689;28;20217;-55
2022/08/22 13:13:06;;;;;;;1.30;1.30;;;;;;;;;;5025567;28;20219;-56
2022/08/22 13:15:34;;;;;;;1.40;1.40;;;;;;;;;;5019650;28;20235;-56
2022/08/22 13:18:00;;;;;;;1.35;1.35;;;;;;;;;;5020802;28;20236;-56
2022/08/22 13:20:28;;;;;;;1.30;1.30;;;;;;;;;;5016895;28;20246;-56
2022/08/22 13:22:54;;;;;;;1.40;1.40;;;;;;;;;;5024278;28;20228;-56
2022/08/22 13:25:20;;;;;;;1.30;1.30;;;;;;;;;;5006850;28;20627;-56
2022/08/22 13:27:47;;;;;;;1.35;1.35;;;;;;;;;;5020079;28;20227;-56
2022/08/22 13:30:17;;;;;;;1.30;1.30;;;;;;;;;;5008062;28;20658;-55
2022/08/22 13:32:48;;;;;;;1.30;1.30;;;;;;;;;;5003167;28;20926;-55
2022/08/22 13:35:35;;;;;;;1.20;1.20;;;;;;;;;;5005291;28;20224;-56
2022/08/22 13:38:07;;;;;;;1.27;1.27;;;;;;;;;;5025620;28;20235;-55
2022/08/22 13:40:33;;;;;;;1.17;1.17;;;;;;;;;;4995671;28;20398;-57
2022/08/22 13:43:07;;;;;;;1.20;1.20;;;;;;;;;;4992644;28;20232;-57
2022/08/22 13:45:33;;;;;;;1.20;1.20;;;;;;;;;;5002120;28;20605;-57
2022/08/22 13:48:06;;;;;;;1.23;1.23;;;;;;;;;;5019080;28;20224;-58
2022/08/22 13:50:32;;;;;;;1.40;1.40;;;;;;;;;;4999725;28;20242;-57
2022/08/22 13:53:06;;;;;;;1.40;1.40;;;;;;;;;;5007454;28;20269;-57
2022/08/22 13:55:45;;;;;;;1.70;1.70;;;;;;;;;;5026497;28;20779;-58
2022/08/22 13:58:19;;;;;;;1.60;1.60;;;;;;;;;;5006313;28;20688;-58
2022/08/22 14:01:03;;;;;;;1.60;1.60;;;;;;;;;;5003036;28;20220;-59
2022/08/22 14:03:48;;;;;;;1.50;1.50;;;;;;;;;;5013515;28;20252;-57
2022/08/22 14:06:25;;;;;;;1.60;1.60;;;;;;;;;;5018125;28;20651;-58
2022/08/22 14:08:52;;;;;;;1.50;1.50;;;;;;;;;;5017505;28;21107;-57
2022/08/22 14:11:22;;;;;;;0.90;0.90;;;;;;;;;;5005617;28;20313;-57
2022/08/22 14:13:49;;;;;;;0.80;0.80;;;;;;;;;;5005514;28;20263;-58
2022/08/22 14:16:22;;;;;;;0.70;0.70;;;;;;;;;;5024086;28;20221;-57
2022/08/22 14:18:54;;;;;;;0.60;0.60;;;;;;;;;;5003073;28;20819;-57
2022/08/22 14:21:31;;;;;;;0.60;0.60;;;;;;;;;;5008508;28;20200;-57
2022/08/22 14:23:58;;;;;;;0.60;0.60;;;;;;;;;;5020956;28;20227;-58
2022/08/22 14:26:33;;;;;;;0.60;0.60;;;;;;;;;;5015394;28;20270;-57
2022/08/22 14:28:59;;;;;;;0.70;0.70;;;;;;;;;;5013320;28;20224;-58
2022/08/22 14:31:26;;;;;;;0.90;0.90;;;;;;;;;;5004159;28;20316;-58
2022/08/22 14:33:59;;;;;;;0.80;0.80;;;;;;;;;;5012836;28;20231;-57
2022/08/22 14:36:29;;;;;;;0.82;0.82;;;;;;;;;;5006755;28;20241;-57
2022/08/22 14:38:58;;;;;;;0.80;0.80;;;;;;;;;;5002930;28;20224;-58
2022/08/22 14:41:27;;;;;;;0.80;0.80;;;;;;;;;;5005374;28;20239;-58
2022/08/22 14:43:57;;;;;;;0.80;0.80;;;;;;;;;;5002247;28;20240;-58
2022/08/22 14:46:43;;;;;;;0.80;0.80;;;;;;;;;;4993321;28;20694;-57
2022/08/22 14:49:12;;;;;;;0.80;0.80;;;;;;;;;;5012105;28;21448;-58
2022/08/22 14:51:38;;;;;;;0.90;0.90;;;;;;;;;;5013769;28;20324;-57
2022/08/22 14:54:11;;;;;;;0.90;0.90;;;;;;;;;;4977740;28;20583;-58
2022/08/22 14:56:37;;;;;;;0.80;0.80;;;;;;;;;;5009116;28;20313;-58
2022/08/22 14:59:05;;;;;;;0.90;0.90;;;;;;;;;;5010812;28;20281;-58
2022/08/22 15:01:32;;;;;;;0.80;0.80;;;;;;;;;;4999927;28;20216;-57
2022/08/22 15:04:09;;;;;;;0.90;0.90;;;;;;;;;;5013050;28;20721;-57
2022/08/22 15:06:36;;;;;;;0.80;0.80;;;;;;;;;;4990542;28;21818;-58
2022/08/22 15:09:28;;;;;;;0.90;0.90;;;;;;;;;;5010878;28;20583;-58
2022/08/22 15:11:54;;;;;;;0.82;0.82;;;;;;;;;;5020781;28;20225;-57
2022/08/22 15:14:43;;;;;;;0.80;0.80;;;;;;;;;;5007429;28;20266;-58
2022/08/22 15:17:09;;;;;;;0.80;0.80;;;;;;;;;;5003583;28;20316;-58
2022/08/22 15:19:36;;;;;;;1.00;1.00;;;;;;;;;;5002631;28;20225;-58
2022/08/22 15:22:11;;;;;;;1.30;1.30;;;;;;;;;;5009482;28;20764;-58
2022/08/22 15:24:42;;;;;;;1.40;1.40;;;;;;;;;;5006054;28;20224;-57
2022/08/22 15:27:08;;;;;;;1.45;1.45;;;;;;;;;;5006970;28;20318;-57